sensor_id;sensor_type;location;lat;lon;timestamp;P1;durP1;ratioP1;P2;durP2;ratioP2
64227;SDS011;50546;49.146;10.616;2022-09-13T00:01:11;11.50;;;7.43;;
64227;SDS011;50546;49.146;10.616;2022-09-13T00:03:37;11.98;;;7.50;;
64227;SDS011;50546;49.146;10.616;2022-09-13T00:06:06;11.57;;;7.90;;
64227;SDS011;50546;49.146;10.616;2022-09-13T00:08:32;11.70;;;7.23;;
64227;SDS011;50546;49.146;10.616;2022-09-13T00:10:58;10.38;;;7.50;;
64227;SDS011;50546;49.146;10.616;2022-09-13T00:13:23;10.90;;;6.90;;
64227;SDS011;50546;49.146;10.616;2022-09-13T00:15:48;10.68;;;7.40;;
64227;SDS011;50546;49.146;10.616;2022-09-13T00:18:14;10.63;;;7.30;;
64227;SDS011;50546;49.146;10.616;2022-09-13T00:20:41;11.02;;;7.53;;
64227;SDS011;50546;49.146;10.616;2022-09-13T00:23:06;11.23;;;6.78;;
64227;SDS011;50546;49.146;10.616;2022-09-13T00:25:31;11.20;;;7.55;;
64227;SDS011;50546;49.146;10.616;2022-09-13T00:27:57;12.25;;;7.93;;
64227;SDS011;50546;49.146;10.616;2022-09-13T00:30:22;11.63;;;7.53;;
64227;SDS011;50546;49.146;10.616;2022-09-13T00:32:47;12.43;;;7.82;;
64227;SDS011;50546;49.146;10.616;2022-09-13T00:35:13;11.23;;;7.57;;
64227;SDS011;50546;49.146;10.616;2022-09-13T00:37:38;10.73;;;7.65;;
64227;SDS011;50546;49.146;10.616;2022-09-13T00:40:04;13.05;;;7.93;;
64227;SDS011;50546;49.146;10.616;2022-09-13T00:42:30;12.20;;;7.57;;
64227;SDS011;50546;49.146;10.616;2022-09-13T00:47:35;12.05;;;7.70;;
64227;SDS011;50546;49.146;10.616;2022-09-13T00:50:12;11.50;;;7.15;;
64227;SDS011;50546;49.146;10.616;2022-09-13T00:52:46;12.50;;;7.82;;
64227;SDS011;50546;49.146;10.616;2022-09-13T00:55:18;11.98;;;7.25;;
64227;SDS011;50546;49.146;10.616;2022-09-13T00:57:47;11.32;;;7.68;;
64227;SDS011;50546;49.146;10.616;2022-09-13T01:00:15;11.43;;;8.18;;
64227;SDS011;50546;49.146;10.616;2022-09-13T01:02:47;11.25;;;7.72;;
64227;SDS011;50546;49.146;10.616;2022-09-13T01:05:17;11.93;;;7.78;;
64227;SDS011;50546;49.146;10.616;2022-09-13T01:07:46;11.07;;;7.75;;
64227;SDS011;50546;49.146;10.616;2022-09-13T01:10:11;11.27;;;7.53;;
64227;SDS011;50546;49.146;10.616;2022-09-13T01:12:43;11.73;;;7.85;;
64227;SDS011;50546;49.146;10.616;2022-09-13T01:15:17;11.68;;;8.02;;
64227;SDS011;50546;49.146;10.616;2022-09-13T01:17:42;11.20;;;7.72;;
64227;SDS011;50546;49.146;10.616;2022-09-13T01:20:08;12.35;;;8.10;;
64227;SDS011;50546;49.146;10.616;2022-09-13T01:28:07;11.40;;;7.95;;
64227;SDS011;50546;49.146;10.616;2022-09-13T01:33:58;12.30;;;7.95;;
64227;SDS011;50546;49.146;10.616;2022-09-13T01:40:00;11.48;;;8.10;;
64227;SDS011;50546;49.146;10.616;2022-09-13T01:42:47;11.73;;;7.60;;
64227;SDS011;50546;49.146;10.616;2022-09-13T01:45:20;12.88;;;7.80;;
64227;SDS011;50546;49.146;10.616;2022-09-13T01:47:59;12.50;;;8.02;;
64227;SDS011;50546;49.146;10.616;2022-09-13T01:50:45;11.18;;;7.57;;
64227;SDS011;50546;49.146;10.616;2022-09-13T01:55:58;11.85;;;8.02;;
64227;SDS011;50546;49.146;10.616;2022-09-13T01:58:43;10.20;;;7.10;;
64227;SDS011;50546;49.146;10.616;2022-09-13T02:01:11;11.05;;;7.32;;
64227;SDS011;50546;49.146;10.616;2022-09-13T02:06:20;12.18;;;7.45;;
64227;SDS011;50546;49.146;10.616;2022-09-13T02:08:59;10.70;;;7.18;;
64227;SDS011;50546;49.146;10.616;2022-09-13T02:11:27;10.90;;;7.00;;
64227;SDS011;50546;49.146;10.616;2022-09-13T02:14:06;10.27;;;6.88;;
64227;SDS011;50546;49.146;10.616;2022-09-13T02:16:53;11.23;;;7.22;;
64227;SDS011;50546;49.146;10.616;2022-09-13T02:19:41;11.48;;;7.47;;
64227;SDS011;50546;49.146;10.616;2022-09-13T02:22:12;10.30;;;7.10;;
64227;SDS011;50546;49.146;10.616;2022-09-13T02:24:41;12.63;;;8.02;;
64227;SDS011;50546;49.146;10.616;2022-09-13T02:27:12;10.15;;;6.57;;
64227;SDS011;50546;49.146;10.616;2022-09-13T02:29:41;11.38;;;7.57;;
64227;SDS011;50546;49.146;10.616;2022-09-13T02:32:23;10.57;;;7.10;;
64227;SDS011;50546;49.146;10.616;2022-09-13T02:35:03;13.20;;;7.57;;
64227;SDS011;50546;49.146;10.616;2022-09-13T02:37:34;11.52;;;7.93;;
64227;SDS011;50546;49.146;10.616;2022-09-13T02:40:03;12.68;;;8.10;;
64227;SDS011;50546;49.146;10.616;2022-09-13T02:42:37;11.30;;;7.70;;
64227;SDS011;50546;49.146;10.616;2022-09-13T02:45:08;12.45;;;7.80;;
64227;SDS011;50546;49.146;10.616;2022-09-13T02:47:47;11.20;;;6.85;;
64227;SDS011;50546;49.146;10.616;2022-09-13T02:55:41;11.15;;;6.97;;
64227;SDS011;50546;49.146;10.616;2022-09-13T03:00:54;13.15;;;7.88;;
64227;SDS011;50546;49.146;10.616;2022-09-13T03:03:20;12.50;;;7.68;;
64227;SDS011;50546;49.146;10.616;2022-09-13T03:05:45;11.05;;;7.47;;
64227;SDS011;50546;49.146;10.616;2022-09-13T03:08:11;10.68;;;7.18;;
64227;SDS011;50546;49.146;10.616;2022-09-13T03:10:43;11.23;;;7.72;;
64227;SDS011;50546;49.146;10.616;2022-09-13T03:23:49;10.77;;;6.95;;
64227;SDS011;50546;49.146;10.616;2022-09-13T03:32:11;11.38;;;7.40;;
64227;SDS011;50546;49.146;10.616;2022-09-13T03:37:41;12.15;;;7.55;;
64227;SDS011;50546;49.146;10.616;2022-09-13T03:43:01;11.02;;;7.18;;
64227;SDS011;50546;49.146;10.616;2022-09-13T03:45:34;12.52;;;7.82;;
64227;SDS011;50546;49.146;10.616;2022-09-13T03:48:04;11.55;;;7.43;;
64227;SDS011;50546;49.146;10.616;2022-09-13T03:50:31;12.30;;;7.90;;
64227;SDS011;50546;49.146;10.616;2022-09-13T03:53:03;12.60;;;7.68;;
64227;SDS011;50546;49.146;10.616;2022-09-13T03:55:32;12.73;;;7.43;;
64227;SDS011;50546;49.146;10.616;2022-09-13T03:58:02;12.65;;;7.30;;
64227;SDS011;50546;49.146;10.616;2022-09-13T04:00:27;14.32;;;9.10;;
64227;SDS011;50546;49.146;10.616;2022-09-13T04:02:53;12.68;;;8.48;;
64227;SDS011;50546;49.146;10.616;2022-09-13T04:05:19;15.68;;;8.32;;
64227;SDS011;50546;49.146;10.616;2022-09-13T04:07:44;12.52;;;8.20;;
64227;SDS011;50546;49.146;10.616;2022-09-13T04:10:10;13.18;;;8.15;;
64227;SDS011;50546;49.146;10.616;2022-09-13T04:12:36;11.93;;;7.63;;
64227;SDS011;50546;49.146;10.616;2022-09-13T04:15:01;14.43;;;8.05;;
64227;SDS011;50546;49.146;10.616;2022-09-13T04:17:27;16.50;;;7.95;;
64227;SDS011;50546;49.146;10.616;2022-09-13T04:19:52;13.25;;;8.15;;
64227;SDS011;50546;49.146;10.616;2022-09-13T04:22:17;14.90;;;8.10;;
64227;SDS011;50546;49.146;10.616;2022-09-13T04:24:43;13.88;;;8.30;;
64227;SDS011;50546;49.146;10.616;2022-09-13T04:27:08;13.50;;;8.43;;
64227;SDS011;50546;49.146;10.616;2022-09-13T04:29:34;12.05;;;7.20;;
64227;SDS011;50546;49.146;10.616;2022-09-13T04:31:59;12.45;;;7.75;;
64227;SDS011;50546;49.146;10.616;2022-09-13T04:34:25;11.93;;;7.20;;
64227;SDS011;50546;49.146;10.616;2022-09-13T04:36:51;13.00;;;7.45;;
64227;SDS011;50546;49.146;10.616;2022-09-13T04:39:17;14.15;;;8.85;;
64227;SDS011;50546;49.146;10.616;2022-09-13T04:41:44;16.05;;;8.10;;
64227;SDS011;50546;49.146;10.616;2022-09-13T04:44:11;11.90;;;7.72;;
64227;SDS011;50546;49.146;10.616;2022-09-13T04:46:36;13.38;;;8.38;;
64227;SDS011;50546;49.146;10.616;2022-09-13T04:49:01;13.13;;;7.90;;
64227;SDS011;50546;49.146;10.616;2022-09-13T04:51:27;13.13;;;7.50;;
64227;SDS011;50546;49.146;10.616;2022-09-13T04:53:53;13.52;;;8.05;;
64227;SDS011;50546;49.146;10.616;2022-09-13T04:56:21;12.60;;;8.10;;
64227;SDS011;50546;49.146;10.616;2022-09-13T04:58:51;13.27;;;8.30;;
64227;SDS011;50546;49.146;10.616;2022-09-13T05:01:17;12.43;;;7.93;;
64227;SDS011;50546;49.146;10.616;2022-09-13T05:03:43;12.07;;;7.28;;
64227;SDS011;50546;49.146;10.616;2022-09-13T05:06:09;13.95;;;8.13;;
64227;SDS011;50546;49.146;10.616;2022-09-13T05:08:36;12.55;;;8.18;;
64227;SDS011;50546;49.146;10.616;2022-09-13T05:11:02;12.55;;;7.90;;
64227;SDS011;50546;49.146;10.616;2022-09-13T05:13:29;12.80;;;8.07;;
64227;SDS011;50546;49.146;10.616;2022-09-13T05:15:58;13.48;;;7.85;;
64227;SDS011;50546;49.146;10.616;2022-09-13T05:18:29;14.00;;;7.70;;
64227;SDS011;50546;49.146;10.616;2022-09-13T05:20:55;13.85;;;8.32;;
64227;SDS011;50546;49.146;10.616;2022-09-13T05:23:22;12.13;;;7.75;;
64227;SDS011;50546;49.146;10.616;2022-09-13T05:25:55;13.02;;;7.85;;
64227;SDS011;50546;49.146;10.616;2022-09-13T05:28:22;13.70;;;7.65;;
64227;SDS011;50546;49.146;10.616;2022-09-13T05:30:59;11.90;;;7.68;;
64227;SDS011;50546;49.146;10.616;2022-09-13T05:33:27;13.20;;;8.20;;
64227;SDS011;50546;49.146;10.616;2022-09-13T05:35:55;12.40;;;7.70;;
64227;SDS011;50546;49.146;10.616;2022-09-13T05:38:21;11.30;;;7.55;;
64227;SDS011;50546;49.146;10.616;2022-09-13T05:40:47;12.80;;;8.38;;
64227;SDS011;50546;49.146;10.616;2022-09-13T05:43:13;11.75;;;7.55;;
64227;SDS011;50546;49.146;10.616;2022-09-13T05:45:38;14.07;;;7.82;;
64227;SDS011;50546;49.146;10.616;2022-09-13T05:48:04;12.05;;;8.00;;
64227;SDS011;50546;49.146;10.616;2022-09-13T05:50:30;13.23;;;7.20;;
64227;SDS011;50546;49.146;10.616;2022-09-13T05:52:55;11.40;;;7.78;;
64227;SDS011;50546;49.146;10.616;2022-09-13T05:55:21;13.45;;;7.90;;
64227;SDS011;50546;49.146;10.616;2022-09-13T05:57:47;12.80;;;8.02;;
64227;SDS011;50546;49.146;10.616;2022-09-13T06:00:13;12.60;;;7.50;;
64227;SDS011;50546;49.146;10.616;2022-09-13T06:02:39;13.15;;;7.00;;
64227;SDS011;50546;49.146;10.616;2022-09-13T06:05:05;13.40;;;8.40;;
64227;SDS011;50546;49.146;10.616;2022-09-13T06:07:31;12.38;;;8.10;;
64227;SDS011;50546;49.146;10.616;2022-09-13T06:09:57;14.52;;;7.63;;
64227;SDS011;50546;49.146;10.616;2022-09-13T06:12:22;13.93;;;8.27;;
64227;SDS011;50546;49.146;10.616;2022-09-13T06:14:47;12.98;;;7.60;;
64227;SDS011;50546;49.146;10.616;2022-09-13T06:17:13;12.10;;;7.65;;
64227;SDS011;50546;49.146;10.616;2022-09-13T06:19:39;12.05;;;7.55;;
64227;SDS011;50546;49.146;10.616;2022-09-13T06:22:04;12.35;;;7.28;;
64227;SDS011;50546;49.146;10.616;2022-09-13T06:24:29;12.50;;;7.40;;
64227;SDS011;50546;49.146;10.616;2022-09-13T06:26:54;11.98;;;7.03;;
64227;SDS011;50546;49.146;10.616;2022-09-13T06:29:20;11.50;;;7.28;;
64227;SDS011;50546;49.146;10.616;2022-09-13T06:31:45;10.88;;;6.72;;
64227;SDS011;50546;49.146;10.616;2022-09-13T06:34:11;10.15;;;6.10;;
64227;SDS011;50546;49.146;10.616;2022-09-13T06:36:39;12.23;;;7.07;;
64227;SDS011;50546;49.146;10.616;2022-09-13T06:39:04;10.35;;;6.38;;
64227;SDS011;50546;49.146;10.616;2022-09-13T06:41:30;12.68;;;6.68;;
64227;SDS011;50546;49.146;10.616;2022-09-13T06:43:56;11.18;;;6.63;;
64227;SDS011;50546;49.146;10.616;2022-09-13T06:46:23;11.85;;;6.93;;
64227;SDS011;50546;49.146;10.616;2022-09-13T06:48:50;11.00;;;6.78;;
64227;SDS011;50546;49.146;10.616;2022-09-13T06:51:17;11.38;;;7.10;;
64227;SDS011;50546;49.146;10.616;2022-09-13T06:53:44;11.40;;;7.70;;
64227;SDS011;50546;49.146;10.616;2022-09-13T06:58:37;11.05;;;7.10;;
64227;SDS011;50546;49.146;10.616;2022-09-13T07:01:08;12.90;;;7.13;;
64227;SDS011;50546;49.146;10.616;2022-09-13T07:03:36;12.30;;;7.28;;
64227;SDS011;50546;49.146;10.616;2022-09-13T07:08:34;13.00;;;7.53;;
64227;SDS011;50546;49.146;10.616;2022-09-13T07:11:00;11.68;;;7.20;;
64227;SDS011;50546;49.146;10.616;2022-09-13T07:13:26;10.93;;;6.70;;
64227;SDS011;50546;49.146;10.616;2022-09-13T07:15:51;12.48;;;7.10;;
64227;SDS011;50546;49.146;10.616;2022-09-13T07:18:16;11.18;;;6.80;;
64227;SDS011;50546;49.146;10.616;2022-09-13T07:20:41;10.30;;;6.45;;
64227;SDS011;50546;49.146;10.616;2022-09-13T07:23:07;13.35;;;7.18;;
64227;SDS011;50546;49.146;10.616;2022-09-13T07:25:32;14.30;;;7.13;;
64227;SDS011;50546;49.146;10.616;2022-09-13T07:27:57;11.02;;;6.57;;
64227;SDS011;50546;49.146;10.616;2022-09-13T07:30:23;10.80;;;6.50;;
64227;SDS011;50546;49.146;10.616;2022-09-13T07:32:50;10.30;;;6.18;;
64227;SDS011;50546;49.146;10.616;2022-09-13T07:35:15;11.38;;;6.10;;
64227;SDS011;50546;49.146;10.616;2022-09-13T07:37:41;9.30;;;5.10;;
64227;SDS011;50546;49.146;10.616;2022-09-13T07:40:06;8.90;;;5.30;;
64227;SDS011;50546;49.146;10.616;2022-09-13T07:42:32;10.48;;;6.05;;
64227;SDS011;50546;49.146;10.616;2022-09-13T07:44:57;10.98;;;6.63;;
64227;SDS011;50546;49.146;10.616;2022-09-13T07:47:23;10.20;;;6.20;;
64227;SDS011;50546;49.146;10.616;2022-09-13T07:49:48;9.65;;;6.55;;
64227;SDS011;50546;49.146;10.616;2022-09-13T07:52:14;10.20;;;6.45;;
64227;SDS011;50546;49.146;10.616;2022-09-13T07:54:39;10.20;;;5.80;;
64227;SDS011;50546;49.146;10.616;2022-09-13T07:57:05;9.80;;;5.80;;
64227;SDS011;50546;49.146;10.616;2022-09-13T07:59:30;9.02;;;5.57;;
64227;SDS011;50546;49.146;10.616;2022-09-13T08:01:55;8.32;;;5.20;;
64227;SDS011;50546;49.146;10.616;2022-09-13T08:04:23;8.80;;;5.00;;
64227;SDS011;50546;49.146;10.616;2022-09-13T08:06:49;9.00;;;5.45;;
64227;SDS011;50546;49.146;10.616;2022-09-13T08:09:14;11.77;;;6.95;;
64227;SDS011;50546;49.146;10.616;2022-09-13T08:11:42;11.30;;;6.47;;
64227;SDS011;50546;49.146;10.616;2022-09-13T08:19:13;10.63;;;6.43;;
64227;SDS011;50546;49.146;10.616;2022-09-13T08:21:40;10.00;;;5.70;;
64227;SDS011;50546;49.146;10.616;2022-09-13T08:24:07;8.75;;;5.32;;
64227;SDS011;50546;49.146;10.616;2022-09-13T08:26:37;7.30;;;4.13;;
64227;SDS011;50546;49.146;10.616;2022-09-13T08:29:04;6.78;;;3.60;;
64227;SDS011;50546;49.146;10.616;2022-09-13T08:31:30;6.72;;;3.17;;
64227;SDS011;50546;49.146;10.616;2022-09-13T08:33:56;6.57;;;3.35;;
64227;SDS011;50546;49.146;10.616;2022-09-13T08:36:22;6.38;;;3.45;;
64227;SDS011;50546;49.146;10.616;2022-09-13T08:38:49;7.05;;;3.60;;
64227;SDS011;50546;49.146;10.616;2022-09-13T08:49:43;7.65;;;3.00;;
64227;SDS011;50546;49.146;10.616;2022-09-13T08:52:28;7.25;;;3.13;;
64227;SDS011;50546;49.146;10.616;2022-09-13T08:54:57;5.30;;;2.70;;
64227;SDS011;50546;49.146;10.616;2022-09-13T08:57:28;5.72;;;2.90;;
64227;SDS011;50546;49.146;10.616;2022-09-13T09:00:28;6.03;;;3.00;;
64227;SDS011;50546;49.146;10.616;2022-09-13T09:03:01;6.03;;;3.22;;
64227;SDS011;50546;49.146;10.616;2022-09-13T09:05:47;6.28;;;3.00;;
64227;SDS011;50546;49.146;10.616;2022-09-13T09:08:18;5.95;;;3.00;;
64227;SDS011;50546;49.146;10.616;2022-09-13T09:10:55;5.78;;;3.08;;
64227;SDS011;50546;49.146;10.616;2022-09-13T09:13:30;6.25;;;2.97;;
64227;SDS011;50546;49.146;10.616;2022-09-13T09:16:21;11.07;;;3.88;;
64227;SDS011;50546;49.146;10.616;2022-09-13T09:21:19;5.63;;;2.80;;
64227;SDS011;50546;49.146;10.616;2022-09-13T09:23:52;6.65;;;3.13;;
64227;SDS011;50546;49.146;10.616;2022-09-13T09:26:26;6.35;;;3.00;;
64227;SDS011;50546;49.146;10.616;2022-09-13T09:28:54;6.10;;;2.72;;
64227;SDS011;50546;49.146;10.616;2022-09-13T09:34:27;6.22;;;3.30;;
64227;SDS011;50546;49.146;10.616;2022-09-13T09:37:16;7.63;;;3.35;;
64227;SDS011;50546;49.146;10.616;2022-09-13T09:39:49;6.03;;;2.90;;
64227;SDS011;50546;49.146;10.616;2022-09-13T09:42:19;7.90;;;3.00;;
64227;SDS011;50546;49.146;10.616;2022-09-13T09:44:47;6.53;;;3.00;;
64227;SDS011;50546;49.146;10.616;2022-09-13T09:47:18;6.03;;;3.08;;
64227;SDS011;50546;49.146;10.616;2022-09-13T09:52:58;5.57;;;2.70;;
64227;SDS011;50546;49.146;10.616;2022-09-13T09:55:39;6.43;;;3.33;;
64227;SDS011;50546;49.146;10.616;2022-09-13T09:58:10;8.20;;;3.72;;
64227;SDS011;50546;49.146;10.616;2022-09-13T10:00:39;7.47;;;3.63;;
64227;SDS011;50546;49.146;10.616;2022-09-13T10:03:16;6.80;;;4.20;;
64227;SDS011;50546;49.146;10.616;2022-09-13T10:05:43;6.25;;;3.95;;
64227;SDS011;50546;49.146;10.616;2022-09-13T10:08:22;6.78;;;4.30;;
64227;SDS011;50546;49.146;10.616;2022-09-13T10:10:53;6.03;;;3.53;;
64227;SDS011;50546;49.146;10.616;2022-09-13T10:13:21;7.03;;;4.10;;
64227;SDS011;50546;49.146;10.616;2022-09-13T10:15:54;6.57;;;3.38;;
64227;SDS011;50546;49.146;10.616;2022-09-13T10:18:22;7.32;;;3.38;;
64227;SDS011;50546;49.146;10.616;2022-09-13T10:21:00;6.15;;;3.50;;
64227;SDS011;50546;49.146;10.616;2022-09-13T10:23:28;7.50;;;3.38;;
64227;SDS011;50546;49.146;10.616;2022-09-13T10:25:55;6.72;;;3.30;;
64227;SDS011;50546;49.146;10.616;2022-09-13T10:28:22;6.30;;;3.30;;
64227;SDS011;50546;49.146;10.616;2022-09-13T10:33:40;6.35;;;3.53;;
64227;SDS011;50546;49.146;10.616;2022-09-13T10:39:19;6.75;;;3.15;;
64227;SDS011;50546;49.146;10.616;2022-09-13T10:41:50;6.47;;;3.28;;
64227;SDS011;50546;49.146;10.616;2022-09-13T10:47:10;5.90;;;3.17;;
64227;SDS011;50546;49.146;10.616;2022-09-13T10:49:44;6.85;;;3.30;;
64227;SDS011;50546;49.146;10.616;2022-09-13T10:57:42;5.38;;;2.75;;
64227;SDS011;50546;49.146;10.616;2022-09-13T11:00:19;6.20;;;2.97;;
64227;SDS011;50546;49.146;10.616;2022-09-13T11:11:32;7.70;;;3.53;;
64227;SDS011;50546;49.146;10.616;2022-09-13T11:33:48;5.57;;;3.00;;
64227;SDS011;50546;49.146;10.616;2022-09-13T11:48:08;6.50;;;3.80;;
64227;SDS011;50546;49.146;10.616;2022-09-13T11:50:48;6.07;;;3.63;;
64227;SDS011;50546;49.146;10.616;2022-09-13T11:53:50;6.07;;;3.05;;
64227;SDS011;50546;49.146;10.616;2022-09-13T11:56:28;6.28;;;3.08;;
64227;SDS011;50546;49.146;10.616;2022-09-13T11:59:45;7.63;;;2.78;;
64227;SDS011;50546;49.146;10.616;2022-09-13T12:02:01;5.38;;;2.72;;
64227;SDS011;50546;49.146;10.616;2022-09-13T12:04:39;7.53;;;3.22;;
64227;SDS011;50546;49.146;10.616;2022-09-13T12:07:30;5.28;;;2.08;;
64227;SDS011;50546;49.146;10.616;2022-09-13T12:10:02;7.57;;;2.20;;
64227;SDS011;50546;49.146;10.616;2022-09-13T12:12:32;5.20;;;2.47;;
64227;SDS011;50546;49.146;10.616;2022-09-13T12:15:15;7.53;;;3.17;;
64227;SDS011;50546;49.146;10.616;2022-09-13T12:17:49;6.88;;;3.28;;
64227;SDS011;50546;49.146;10.616;2022-09-13T12:20:22;6.07;;;3.33;;
64227;SDS011;50546;49.146;10.616;2022-09-13T12:23:03;5.88;;;3.03;;
64227;SDS011;50546;49.146;10.616;2022-09-13T12:25:38;7.45;;;3.30;;
64227;SDS011;50546;49.146;10.616;2022-09-13T12:28:12;6.55;;;3.22;;
64227;SDS011;50546;49.146;10.616;2022-09-13T12:30:48;5.78;;;2.70;;
64227;SDS011;50546;49.146;10.616;2022-09-13T12:33:20;6.70;;;2.88;;
64227;SDS011;50546;49.146;10.616;2022-09-13T12:35:52;6.35;;;3.72;;
64227;SDS011;50546;49.146;10.616;2022-09-13T12:41:34;7.68;;;2.90;;
64227;SDS011;50546;49.146;10.616;2022-09-13T12:44:26;6.93;;;3.42;;
64227;SDS011;50546;49.146;10.616;2022-09-13T12:52:37;6.88;;;3.33;;
64227;SDS011;50546;49.146;10.616;2022-09-13T13:00:25;6.90;;;4.20;;
64227;SDS011;50546;49.146;10.616;2022-09-13T13:03:02;6.37;;;3.43;;
64227;SDS011;50546;49.146;10.616;2022-09-13T13:05:46;5.97;;;3.45;;
64227;SDS011;50546;49.146;10.616;2022-09-13T13:11:00;5.82;;;3.15;;
64227;SDS011;50546;49.146;10.616;2022-09-13T13:16:03;6.15;;;3.20;;
64227;SDS011;50546;49.146;10.616;2022-09-13T13:18:45;6.57;;;3.00;;
64227;SDS011;50546;49.146;10.616;2022-09-13T13:21:21;7.45;;;2.97;;
64227;SDS011;50546;49.146;10.616;2022-09-13T13:26:47;6.10;;;2.42;;
64227;SDS011;50546;49.146;10.616;2022-09-13T13:36:47;7.80;;;2.90;;
64227;SDS011;50546;49.146;10.616;2022-09-13T13:57:20;8.93;;;3.50;;
64227;SDS011;50546;49.146;10.616;2022-09-13T13:59:47;6.15;;;3.20;;
64227;SDS011;50546;49.146;10.616;2022-09-13T14:02:14;9.65;;;4.30;;
64227;SDS011;50546;49.146;10.616;2022-09-13T14:04:49;8.82;;;4.18;;
64227;SDS011;50546;49.146;10.616;2022-09-13T14:10:58;7.57;;;3.72;;
64227;SDS011;50546;49.146;10.616;2022-09-13T14:16:12;8.55;;;3.47;;
64227;SDS011;50546;49.146;10.616;2022-09-13T14:21:32;7.78;;;3.42;;
64227;SDS011;50546;49.146;10.616;2022-09-13T14:26:46;8.68;;;3.45;;
64227;SDS011;50546;49.146;10.616;2022-09-13T14:29:20;7.03;;;2.90;;
64227;SDS011;50546;49.146;10.616;2022-09-13T14:31:47;6.18;;;2.92;;
64227;SDS011;50546;49.146;10.616;2022-09-13T14:34:22;8.52;;;3.72;;
64227;SDS011;50546;49.146;10.616;2022-09-13T14:36:52;10.10;;;3.95;;
64227;SDS011;50546;49.146;10.616;2022-09-13T14:39:20;7.40;;;3.20;;
64227;SDS011;50546;49.146;10.616;2022-09-13T14:41:45;7.57;;;3.40;;
64227;SDS011;50546;49.146;10.616;2022-09-13T14:44:19;13.48;;;3.60;;
64227;SDS011;50546;49.146;10.616;2022-09-13T14:46:47;10.02;;;3.40;;
64227;SDS011;50546;49.146;10.616;2022-09-13T14:49:35;10.38;;;3.60;;
64227;SDS011;50546;49.146;10.616;2022-09-13T14:52:09;8.68;;;3.35;;
64227;SDS011;50546;49.146;10.616;2022-09-13T14:54:53;7.05;;;3.47;;
64227;SDS011;50546;49.146;10.616;2022-09-13T14:57:31;5.95;;;2.92;;
64227;SDS011;50546;49.146;10.616;2022-09-13T15:00:06;8.77;;;3.33;;
64227;SDS011;50546;49.146;10.616;2022-09-13T15:02:43;6.45;;;3.58;;
64227;SDS011;50546;49.146;10.616;2022-09-13T15:05:14;7.30;;;3.67;;
64227;SDS011;50546;49.146;10.616;2022-09-13T15:07:42;7.13;;;3.30;;
64227;SDS011;50546;49.146;10.616;2022-09-13T15:12:36;6.97;;;3.22;;
64227;SDS011;50546;49.146;10.616;2022-09-13T15:15:20;8.15;;;3.78;;
64227;SDS011;50546;49.146;10.616;2022-09-13T15:20:45;6.32;;;3.40;;
64227;SDS011;50546;49.146;10.616;2022-09-13T15:23:29;6.25;;;3.20;;
64227;SDS011;50546;49.146;10.616;2022-09-13T15:33:32;6.00;;;2.97;;
64227;SDS011;50546;49.146;10.616;2022-09-13T15:38:55;5.40;;;2.88;;
64227;SDS011;50546;49.146;10.616;2022-09-13T15:41:26;6.15;;;3.03;;
64227;SDS011;50546;49.146;10.616;2022-09-13T15:46:19;7.00;;;3.93;;
64227;SDS011;50546;49.146;10.616;2022-09-13T15:48:55;7.85;;;4.30;;
64227;SDS011;50546;49.146;10.616;2022-09-13T15:51:22;8.40;;;3.72;;
64227;SDS011;50546;49.146;10.616;2022-09-13T15:53:47;6.55;;;3.60;;
64227;SDS011;50546;49.146;10.616;2022-09-13T15:56:15;10.40;;;4.50;;
64227;SDS011;50546;49.146;10.616;2022-09-13T15:58:43;7.78;;;3.88;;
64227;SDS011;50546;49.146;10.616;2022-09-13T16:01:09;8.43;;;4.57;;
64227;SDS011;50546;49.146;10.616;2022-09-13T16:03:36;11.15;;;5.70;;
64227;SDS011;50546;49.146;10.616;2022-09-13T16:06:03;11.55;;;5.20;;
64227;SDS011;50546;49.146;10.616;2022-09-13T16:08:31;14.10;;;6.45;;
64227;SDS011;50546;49.146;10.616;2022-09-13T16:10:56;12.98;;;5.63;;
64227;SDS011;50546;49.146;10.616;2022-09-13T16:13:21;11.05;;;5.43;;
64227;SDS011;50546;49.146;10.616;2022-09-13T16:15:47;9.80;;;5.35;;
64227;SDS011;50546;49.146;10.616;2022-09-13T16:18:13;9.43;;;4.50;;
64227;SDS011;50546;49.146;10.616;2022-09-13T16:20:40;8.35;;;3.90;;
64227;SDS011;50546;49.146;10.616;2022-09-13T16:23:05;9.27;;;4.18;;
64227;SDS011;50546;49.146;10.616;2022-09-13T16:25:31;7.27;;;3.87;;
64227;SDS011;50546;49.146;10.616;2022-09-13T16:27:56;7.30;;;3.85;;
64227;SDS011;50546;49.146;10.616;2022-09-13T16:30:23;7.72;;;3.90;;
64227;SDS011;50546;49.146;10.616;2022-09-13T16:32:48;8.48;;;5.43;;
64227;SDS011;50546;49.146;10.616;2022-09-13T16:35:14;9.20;;;5.78;;
64227;SDS011;50546;49.146;10.616;2022-09-13T16:37:41;7.50;;;4.68;;
64227;SDS011;50546;49.146;10.616;2022-09-13T16:40:07;9.60;;;4.57;;
64227;SDS011;50546;49.146;10.616;2022-09-13T16:42:34;8.32;;;4.50;;
64227;SDS011;50546;49.146;10.616;2022-09-13T16:44:59;8.20;;;5.18;;
64227;SDS011;50546;49.146;10.616;2022-09-13T16:47:25;9.70;;;5.25;;
64227;SDS011;50546;49.146;10.616;2022-09-13T16:49:50;7.78;;;4.97;;
64227;SDS011;50546;49.146;10.616;2022-09-13T16:52:16;7.53;;;3.55;;
64227;SDS011;50546;49.146;10.616;2022-09-13T16:54:42;8.27;;;3.80;;
64227;SDS011;50546;49.146;10.616;2022-09-13T16:57:10;6.60;;;3.47;;
64227;SDS011;50546;49.146;10.616;2022-09-13T16:59:37;6.68;;;3.60;;
64227;SDS011;50546;49.146;10.616;2022-09-13T17:02:05;7.03;;;3.70;;
64227;SDS011;50546;49.146;10.616;2022-09-13T17:04:31;7.20;;;4.30;;
64227;SDS011;50546;49.146;10.616;2022-09-13T17:06:56;15.60;;;9.65;;
64227;SDS011;50546;49.146;10.616;2022-09-13T17:09:22;16.73;;;9.25;;
64227;SDS011;50546;49.146;10.616;2022-09-13T17:11:50;9.88;;;6.18;;
64227;SDS011;50546;49.146;10.616;2022-09-13T17:14:15;7.97;;;4.03;;
64227;SDS011;50546;49.146;10.616;2022-09-13T17:16:46;6.38;;;3.70;;
64227;SDS011;50546;49.146;10.616;2022-09-13T17:19:14;9.15;;;3.70;;
64227;SDS011;50546;49.146;10.616;2022-09-13T17:21:58;7.50;;;3.20;;
64227;SDS011;50546;49.146;10.616;2022-09-13T17:24:25;6.70;;;3.30;;
64227;SDS011;50546;49.146;10.616;2022-09-13T17:26:52;6.10;;;3.40;;
64227;SDS011;50546;49.146;10.616;2022-09-13T17:29:20;8.13;;;3.83;;
64227;SDS011;50546;49.146;10.616;2022-09-13T17:31:46;9.10;;;3.70;;
64227;SDS011;50546;49.146;10.616;2022-09-13T17:34:11;6.72;;;3.50;;
64227;SDS011;50546;49.146;10.616;2022-09-13T17:36:37;7.53;;;3.63;;
64227;SDS011;50546;49.146;10.616;2022-09-13T17:39:04;7.97;;;4.85;;
64227;SDS011;50546;49.146;10.616;2022-09-13T17:41:29;9.05;;;4.55;;
64227;SDS011;50546;49.146;10.616;2022-09-13T17:43:55;7.03;;;3.55;;
64227;SDS011;50546;49.146;10.616;2022-09-13T17:46:22;6.20;;;3.55;;
64227;SDS011;50546;49.146;10.616;2022-09-13T17:48:50;6.25;;;3.40;;
64227;SDS011;50546;49.146;10.616;2022-09-13T17:51:27;6.35;;;3.50;;
64227;SDS011;50546;49.146;10.616;2022-09-13T17:53:54;7.15;;;3.97;;
64227;SDS011;50546;49.146;10.616;2022-09-13T17:56:29;8.35;;;4.50;;
64227;SDS011;50546;49.146;10.616;2022-09-13T18:01:30;7.07;;;3.55;;
64227;SDS011;50546;49.146;10.616;2022-09-13T18:03:55;6.43;;;3.42;;
64227;SDS011;50546;49.146;10.616;2022-09-13T18:06:20;7.22;;;3.20;;
64227;SDS011;50546;49.146;10.616;2022-09-13T18:08:46;6.03;;;3.58;;
64227;SDS011;50546;49.146;10.616;2022-09-13T18:11:12;7.38;;;4.75;;
64227;SDS011;50546;49.146;10.616;2022-09-13T18:13:40;8.15;;;4.28;;
64227;SDS011;50546;49.146;10.616;2022-09-13T18:16:13;7.20;;;4.05;;